sensor_id;sensor_type;location;lat;lon;timestamp;pressure;altitude;pressure_sealevel;temperature;humidity
15050;BME280;7622;42.724;23.250;2023-02-28T00:00:17;95118.38;;;7.03;100.00
15050;BME280;7622;42.724;23.250;2023-02-28T00:02:44;95124.75;;;7.10;100.00
15050;BME280;7622;42.724;23.250;2023-02-28T00:05:13;95110.94;;;6.98;100.00
15050;BME280;7622;42.724;23.250;2023-02-28T00:07:40;95124.00;;;6.97;100.00
15050;BME280;7622;42.724;23.250;2023-02-28T00:10:09;95126.72;;;6.83;100.00
15050;BME280;7622;42.724;23.250;2023-02-28T00:12:38;95129.47;;;6.68;100.00
15050;BME280;7622;42.724;23.250;2023-02-28T00:15:06;95148.59;;;6.90;100.00
15050;BME280;7622;42.724;23.250;2023-02-28T00:17:33;95145.25;;;6.77;100.00
15050;BME280;7622;42.724;23.250;2023-02-28T00:20:00;95143.06;;;6.83;100.00
15050;BME280;7622;42.724;23.250;2023-02-28T00:22:38;95147.53;;;6.92;100.00
15050;BME280;7622;42.724;23.250;2023-02-28T00:25:06;95144.69;;;6.84;100.00
15050;BME280;7622;42.724;23.250;2023-02-28T00:27:33;95139.53;;;6.84;100.00
15050;BME280;7622;42.724;23.250;2023-02-28T00:30:03;95141.97;;;6.62;100.00
15050;BME280;7622;42.724;23.250;2023-02-28T00:32:30;95150.56;;;6.86;100.00
15050;BME280;7622;42.724;23.250;2023-02-28T00:34:57;95152.78;;;6.67;100.00
15050;BME280;7622;42.724;23.250;2023-02-28T00:37:23;95160.47;;;6.43;100.00
15050;BME280;7622;42.724;23.250;2023-02-28T00:39:50;95161.69;;;6.50;100.00
15050;BME280;7622;42.724;23.250;2023-02-28T00:42:17;95154.75;;;6.27;100.00
15050;BME280;7622;42.724;23.250;2023-02-28T00:44:44;95159.19;;;6.25;100.00
15050;BME280;7622;42.724;23.250;2023-02-28T00:47:13;95154.03;;;6.25;100.00
15050;BME280;7622;42.724;23.250;2023-02-28T00:49:39;95147.09;;;6.25;100.00
15050;BME280;7622;42.724;23.250;2023-02-28T00:52:06;95149.59;;;6.02;100.00
15050;BME280;7622;42.724;23.250;2023-02-28T00:54:33;95143.72;;;6.00;100.00
15050;BME280;7622;42.724;23.250;2023-02-28T00:57:00;95146.00;;;5.91;100.00
15050;BME280;7622;42.724;23.250;2023-02-28T00:59:27;95146.00;;;6.04;100.00
15050;BME280;7622;42.724;23.250;2023-02-28T01:01:53;95148.59;;;5.91;100.00
15050;BME280;7622;42.724;23.250;2023-02-28T01:04:24;95141.56;;;5.93;100.00
15050;BME280;7622;42.724;23.250;2023-02-28T01:06:51;95132.56;;;6.12;100.00
15050;BME280;7622;42.724;23.250;2023-02-28T01:09:18;95145.06;;;6.05;100.00
15050;BME280;7622;42.724;23.250;2023-02-28T01:11:44;95134.31;;;5.86;100.00
15050;BME280;7622;42.724;23.250;2023-02-28T01:14:13;95130.00;;;5.86;100.00
15050;BME280;7622;42.724;23.250;2023-02-28T01:16:40;95132.03;;;5.81;100.00
15050;BME280;7622;42.724;23.250;2023-02-28T01:19:07;95140.91;;;5.77;100.00
15050;BME280;7622;42.724;23.250;2023-02-28T01:21:35;95146.94;;;5.90;100.00
15050;BME280;7622;42.724;23.250;2023-02-28T01:24:03;95144.16;;;5.93;100.00
15050;BME280;7622;42.724;23.250;2023-02-28T01:26:30;95139.50;;;5.99;100.00
15050;BME280;7622;42.724;23.250;2023-02-28T01:28:57;95146.91;;;5.78;100.00
15050;BME280;7622;42.724;23.250;2023-02-28T01:31:24;95135.78;;;5.90;100.00
15050;BME280;7622;42.724;23.250;2023-02-28T01:33:51;95145.56;;;5.85;100.00
15050;BME280;7622;42.724;23.250;2023-02-28T01:36:19;95141.78;;;5.90;100.00
15050;BME280;7622;42.724;23.250;2023-02-28T01:38:48;95139.69;;;5.83;100.00
15050;BME280;7622;42.724;23.250;2023-02-28T01:41:17;95138.03;;;5.82;100.00
15050;BME280;7622;42.724;23.250;2023-02-28T01:46:50;95139.16;;;5.78;100.00
15050;BME280;7622;42.724;23.250;2023-02-28T01:49:17;95138.84;;;5.82;100.00
15050;BME280;7622;42.724;23.250;2023-02-28T01:51:46;95141.34;;;5.97;100.00
15050;BME280;7622;42.724;23.250;2023-02-28T01:54:21;95140.75;;;5.93;100.00
15050;BME280;7622;42.724;23.250;2023-02-28T01:56:52;95137.09;;;5.70;100.00
15050;BME280;7622;42.724;23.250;2023-02-28T01:59:25;95127.53;;;5.98;100.00
15050;BME280;7622;42.724;23.250;2023-02-28T02:01:54;95134.03;;;5.90;100.00
15050;BME280;7622;42.724;23.250;2023-02-28T02:04:23;95137.00;;;5.84;100.00
15050;BME280;7622;42.724;23.250;2023-02-28T02:06:52;95153.94;;;5.88;100.00
15050;BME280;7622;42.724;23.250;2023-02-28T02:09:20;95139.75;;;5.81;100.00
15050;BME280;7622;42.724;23.250;2023-02-28T02:11:48;95142.78;;;5.88;100.00
15050;BME280;7622;42.724;23.250;2023-02-28T02:14:33;95147.75;;;5.91;100.00
15050;BME280;7622;42.724;23.250;2023-02-28T02:17:10;95135.06;;;6.01;100.00
15050;BME280;7622;42.724;23.250;2023-02-28T02:23:16;95141.34;;;6.22;100.00
15050;BME280;7622;42.724;23.250;2023-02-28T02:25:53;95137.84;;;5.98;100.00
15050;BME280;7622;42.724;23.250;2023-02-28T02:28:40;95133.09;;;6.04;100.00
15050;BME280;7622;42.724;23.250;2023-02-28T02:31:25;95129.81;;;6.15;100.00
15050;BME280;7622;42.724;23.250;2023-02-28T02:34:09;95131.75;;;6.11;100.00
15050;BME280;7622;42.724;23.250;2023-02-28T02:36:46;95138.03;;;6.20;100.00
15050;BME280;7622;42.724;23.250;2023-02-28T02:39:20;95138.88;;;6.08;100.00
15050;BME280;7622;42.724;23.250;2023-02-28T02:41:58;95138.88;;;5.95;100.00
15050;BME280;7622;42.724;23.250;2023-02-28T02:44:28;95146.41;;;6.11;100.00
15050;BME280;7622;42.724;23.250;2023-02-28T02:47:01;95145.47;;;6.12;100.00
15050;BME280;7622;42.724;23.250;2023-02-28T02:49:33;95142.69;;;6.02;100.00
15050;BME280;7622;42.724;23.250;2023-02-28T02:52:05;95136.59;;;6.03;100.00
15050;BME280;7622;42.724;23.250;2023-02-28T02:54:35;95142.00;;;5.87;100.00
15050;BME280;7622;42.724;23.250;2023-02-28T02:57:06;95144.22;;;5.79;100.00
15050;BME280;7622;42.724;23.250;2023-02-28T02:59:35;95140.94;;;6.03;100.00
15050;BME280;7622;42.724;23.250;2023-02-28T03:02:06;95142.59;;;6.04;100.00
15050;BME280;7622;42.724;23.250;2023-02-28T03:04:41;95144.16;;;5.93;100.00
15050;BME280;7622;42.724;23.250;2023-02-28T03:07:09;95150.97;;;6.07;100.00
15050;BME280;7622;42.724;23.250;2023-02-28T03:09:35;95158.69;;;5.95;100.00
15050;BME280;7622;42.724;23.250;2023-02-28T03:12:04;95163.22;;;5.91;100.00
15050;BME280;7622;42.724;23.250;2023-02-28T03:14:43;95160.03;;;6.13;100.00
15050;BME280;7622;42.724;23.250;2023-02-28T03:17:28;95157.66;;;5.97;100.00
15050;BME280;7622;42.724;23.250;2023-02-28T03:20:06;95158.06;;;6.04;100.00
15050;BME280;7622;42.724;23.250;2023-02-28T03:22:45;95178.81;;;6.15;100.00
15050;BME280;7622;42.724;23.250;2023-02-28T03:25:20;95167.13;;;5.97;100.00
15050;BME280;7622;42.724;23.250;2023-02-28T03:27:54;95181.50;;;6.01;100.00
15050;BME280;7622;42.724;23.250;2023-02-28T03:30:25;95174.34;;;6.17;100.00
15050;BME280;7622;42.724;23.250;2023-02-28T03:32:57;95186.53;;;6.27;100.00
15050;BME280;7622;42.724;23.250;2023-02-28T03:35:31;95193.31;;;6.16;100.00
15050;BME280;7622;42.724;23.250;2023-02-28T03:38:03;95186.31;;;6.18;100.00
15050;BME280;7622;42.724;23.250;2023-02-28T03:40:33;95195.72;;;6.19;100.00
15050;BME280;7622;42.724;23.250;2023-02-28T03:43:07;95194.16;;;6.29;100.00
15050;BME280;7622;42.724;23.250;2023-02-28T03:45:39;95193.97;;;6.19;100.00
15050;BME280;7622;42.724;23.250;2023-02-28T03:48:13;95196.63;;;6.18;100.00
15050;BME280;7622;42.724;23.250;2023-02-28T03:50:45;95184.25;;;6.23;100.00
15050;BME280;7622;42.724;23.250;2023-02-28T03:53:17;95196.81;;;5.89;100.00
15050;BME280;7622;42.724;23.250;2023-02-28T03:55:49;95201.38;;;6.11;100.00
15050;BME280;7622;42.724;23.250;2023-02-28T03:58:22;95199.84;;;6.21;100.00
15050;BME280;7622;42.724;23.250;2023-02-28T04:00:56;95203.84;;;6.38;100.00
15050;BME280;7622;42.724;23.250;2023-02-28T04:03:24;95208.31;;;6.36;100.00
15050;BME280;7622;42.724;23.250;2023-02-28T04:05:53;95204.06;;;6.35;100.00
15050;BME280;7622;42.724;23.250;2023-02-28T04:08:21;95201.25;;;6.38;100.00
15050;BME280;7622;42.724;23.250;2023-02-28T04:10:55;95193.91;;;6.45;100.00
15050;BME280;7622;42.724;23.250;2023-02-28T04:13:24;95200.00;;;6.44;100.00
15050;BME280;7622;42.724;23.250;2023-02-28T04:15:51;95205.88;;;6.58;100.00
15050;BME280;7622;42.724;23.250;2023-02-28T04:18:17;95199.63;;;6.50;100.00
15050;BME280;7622;42.724;23.250;2023-02-28T04:20:44;95199.09;;;6.45;100.00
15050;BME280;7622;42.724;23.250;2023-02-28T04:23:12;95204.47;;;6.16;100.00
15050;BME280;7622;42.724;23.250;2023-02-28T04:25:39;95197.97;;;6.11;100.00
15050;BME280;7622;42.724;23.250;2023-02-28T04:28:06;95203.03;;;6.25;100.00
15050;BME280;7622;42.724;23.250;2023-02-28T04:30:33;95202.19;;;6.37;100.00
15050;BME280;7622;42.724;23.250;2023-02-28T04:33:00;95198.81;;;6.11;100.00
15050;BME280;7622;42.724;23.250;2023-02-28T04:35:27;95205.41;;;6.15;100.00
15050;BME280;7622;42.724;23.250;2023-02-28T04:37:53;95197.25;;;6.09;100.00
15050;BME280;7622;42.724;23.250;2023-02-28T04:40:21;95209.00;;;6.25;100.00
15050;BME280;7622;42.724;23.250;2023-02-28T04:42:48;95170.44;;;6.11;100.00
15050;BME280;7622;42.724;23.250;2023-02-28T04:45:15;95200.34;;;6.14;100.00
15050;BME280;7622;42.724;23.250;2023-02-28T04:47:42;95213.16;;;6.28;100.00
15050;BME280;7622;42.724;23.250;2023-02-28T04:50:10;95210.03;;;6.23;100.00
15050;BME280;7622;42.724;23.250;2023-02-28T04:52:36;95225.22;;;6.27;100.00
15050;BME280;7622;42.724;23.250;2023-02-28T04:55:04;95222.22;;;6.33;100.00
15050;BME280;7622;42.724;23.250;2023-02-28T04:57:32;95225.72;;;6.32;100.00
15050;BME280;7622;42.724;23.250;2023-02-28T04:59:59;95213.34;;;6.25;100.00
15050;BME280;7622;42.724;23.250;2023-02-28T05:02:26;95227.81;;;6.27;100.00
15050;BME280;7622;42.724;23.250;2023-02-28T05:04:53;95225.28;;;6.51;100.00
15050;BME280;7622;42.724;23.250;2023-02-28T05:07:19;95233.69;;;6.42;100.00
15050;BME280;7622;42.724;23.250;2023-02-28T05:09:46;95228.72;;;6.26;100.00
15050;BME280;7622;42.724;23.250;2023-02-28T05:12:13;95229.66;;;6.25;100.00
15050;BME280;7622;42.724;23.250;2023-02-28T05:14:41;95230.66;;;6.23;100.00
15050;BME280;7622;42.724;23.250;2023-02-28T05:17:09;95222.41;;;6.30;100.00
15050;BME280;7622;42.724;23.250;2023-02-28T05:19:36;95224.50;;;6.25;100.00
15050;BME280;7622;42.724;23.250;2023-02-28T05:22:03;95230.06;;;6.32;100.00
15050;BME280;7622;42.724;23.250;2023-02-28T05:24:30;95230.28;;;6.29;100.00
15050;BME280;7622;42.724;23.250;2023-02-28T05:26:56;95245.44;;;6.21;100.00
15050;BME280;7622;42.724;23.250;2023-02-28T05:29:23;95251.13;;;6.13;100.00
15050;BME280;7622;42.724;23.250;2023-02-28T05:31:51;95238.31;;;6.37;100.00
15050;BME280;7622;42.724;23.250;2023-02-28T05:34:18;95245.22;;;6.49;100.00
15050;BME280;7622;42.724;23.250;2023-02-28T05:36:45;95256.69;;;6.45;100.00
15050;BME280;7622;42.724;23.250;2023-02-28T05:39:12;95268.03;;;6.17;100.00
15050;BME280;7622;42.724;23.250;2023-02-28T05:41:40;95264.53;;;6.31;100.00
15050;BME280;7622;42.724;23.250;2023-02-28T05:44:07;95260.75;;;6.86;100.00
15050;BME280;7622;42.724;23.250;2023-02-28T05:46:34;95265.13;;;6.72;100.00
15050;BME280;7622;42.724;23.250;2023-02-28T05:49:03;95268.03;;;6.30;100.00
15050;BME280;7622;42.724;23.250;2023-02-28T05:51:30;95259.59;;;6.28;100.00
15050;BME280;7622;42.724;23.250;2023-02-28T05:54:00;95254.09;;;6.45;100.00
15050;BME280;7622;42.724;23.250;2023-02-28T05:56:28;95240.28;;;6.33;100.00
15050;BME280;7622;42.724;23.250;2023-02-28T05:58:55;95255.75;;;6.46;100.00
15050;BME280;7622;42.724;23.250;2023-02-28T06:01:30;95259.78;;;6.63;100.00
15050;BME280;7622;42.724;23.250;2023-02-28T06:03:58;95265.78;;;6.63;100.00
15050;BME280;7622;42.724;23.250;2023-02-28T06:06:26;95264.41;;;6.58;100.00
15050;BME280;7622;42.724;23.250;2023-02-28T06:08:53;95269.06;;;6.53;100.00
15050;BME280;7622;42.724;23.250;2023-02-28T06:11:20;95275.44;;;6.72;100.00
15050;BME280;7622;42.724;23.250;2023-02-28T06:13:47;95266.16;;;6.83;100.00
15050;BME280;7622;42.724;23.250;2023-02-28T06:16:14;95269.16;;;6.77;100.00
15050;BME280;7622;42.724;23.250;2023-02-28T06:18:40;95267.81;;;6.84;100.00
15050;BME280;7622;42.724;23.250;2023-02-28T06:21:07;95270.81;;;6.65;100.00
15050;BME280;7622;42.724;23.250;2023-02-28T06:23:35;95271.94;;;6.73;100.00
15050;BME280;7622;42.724;23.250;2023-02-28T06:26:02;95271.50;;;6.80;100.00
15050;BME280;7622;42.724;23.250;2023-02-28T06:28:29;95279.69;;;6.73;100.00
15050;BME280;7622;42.724;23.250;2023-02-28T06:30:56;95270.16;;;6.87;100.00
15050;BME280;7622;42.724;23.250;2023-02-28T06:33:23;95278.69;;;7.00;100.00
15050;BME280;7622;42.724;23.250;2023-02-28T06:35:51;95280.97;;;6.92;100.00
15050;BME280;7622;42.724;23.250;2023-02-28T06:38:18;95285.16;;;6.82;100.00
15050;BME280;7622;42.724;23.250;2023-02-28T06:40:56;95286.56;;;6.86;100.00
15050;BME280;7622;42.724;23.250;2023-02-28T06:43:25;95288.88;;;6.78;100.00
15050;BME280;7622;42.724;23.250;2023-02-28T06:45:54;95298.38;;;6.90;100.00
15050;BME280;7622;42.724;23.250;2023-02-28T06:48:20;95288.34;;;6.98;100.00
15050;BME280;7622;42.724;23.250;2023-02-28T06:50:47;95288.47;;;6.84;100.00
15050;BME280;7622;42.724;23.250;2023-02-28T06:53:14;95285.22;;;6.93;100.00
15050;BME280;7622;42.724;23.250;2023-02-28T06:55:41;95288.19;;;6.99;100.00
15050;BME280;7622;42.724;23.250;2023-02-28T06:58:10;95296.25;;;7.07;100.00
15050;BME280;7622;42.724;23.250;2023-02-28T07:00:45;95298.31;;;7.15;100.00
15050;BME280;7622;42.724;23.250;2023-02-28T07:03:13;95294.94;;;7.38;100.00
15050;BME280;7622;42.724;23.250;2023-02-28T07:05:43;95290.50;;;7.04;100.00
15050;BME280;7622;42.724;23.250;2023-02-28T07:08:09;95294.75;;;7.29;100.00
15050;BME280;7622;42.724;23.250;2023-02-28T07:10:37;95300.03;;;6.91;100.00
15050;BME280;7622;42.724;23.250;2023-02-28T07:13:04;95299.03;;;7.17;100.00
15050;BME280;7622;42.724;23.250;2023-02-28T07:15:33;95294.72;;;7.41;100.00
15050;BME280;7622;42.724;23.250;2023-02-28T07:18:00;95298.50;;;7.25;100.00
15050;BME280;7622;42.724;23.250;2023-02-28T07:20:27;95300.75;;;7.29;100.00
15050;BME280;7622;42.724;23.250;2023-02-28T07:22:53;95308.31;;;7.20;100.00
15050;BME280;7622;42.724;23.250;2023-02-28T07:25:22;95299.22;;;7.14;100.00
15050;BME280;7622;42.724;23.250;2023-02-28T07:27:48;95298.50;;;7.25;100.00
15050;BME280;7622;42.724;23.250;2023-02-28T07:30:16;95292.28;;;7.27;100.00
15050;BME280;7622;42.724;23.250;2023-02-28T07:32:44;95296.16;;;7.09;100.00
15050;BME280;7622;42.724;23.250;2023-02-28T07:35:11;95302.00;;;6.75;100.00
15050;BME280;7622;42.724;23.250;2023-02-28T07:37:38;95301.66;;;6.79;100.00
15050;BME280;7622;42.724;23.250;2023-02-28T07:40:09;95299.78;;;6.94;100.00
15050;BME280;7622;42.724;23.250;2023-02-28T07:42:38;95306.56;;;7.20;100.00
15050;BME280;7622;42.724;23.250;2023-02-28T07:45:05;95283.91;;;6.87;100.00
15050;BME280;7622;42.724;23.250;2023-02-28T07:47:32;95303.72;;;6.87;100.00
15050;BME280;7622;42.724;23.250;2023-02-28T07:50:01;95298.13;;;6.93;100.00
15050;BME280;7622;42.724;23.250;2023-02-28T07:52:27;95298.03;;;6.94;100.00
15050;BME280;7622;42.724;23.250;2023-02-28T07:54:54;95289.22;;;7.09;100.00
15050;BME280;7622;42.724;23.250;2023-02-28T07:57:21;95291.47;;;7.14;100.00
15050;BME280;7622;42.724;23.250;2023-02-28T07:59:48;95294.28;;;7.11;100.00
15050;BME280;7622;42.724;23.250;2023-02-28T08:02:15;95290.06;;;7.10;100.00
15050;BME280;7622;42.724;23.250;2023-02-28T08:04:43;95283.59;;;7.28;100.00
15050;BME280;7622;42.724;23.250;2023-02-28T08:07:12;95291.81;;;7.46;100.00
15050;BME280;7622;42.724;23.250;2023-02-28T08:09:40;95283.00;;;7.48;100.00
15050;BME280;7622;42.724;23.250;2023-02-28T08:12:07;95288.25;;;7.60;100.00
15050;BME280;7622;42.724;23.250;2023-02-28T08:14:34;95290.84;;;7.60;100.00
15050;BME280;7622;42.724;23.250;2023-02-28T08:17:01;95295.22;;;7.46;100.00
15050;BME280;7622;42.724;23.250;2023-02-28T08:19:28;95303.34;;;7.77;100.00
15050;BME280;7622;42.724;23.250;2023-02-28T08:21:55;95300.78;;;7.77;100.00
15050;BME280;7622;42.724;23.250;2023-02-28T08:24:24;95305.94;;;7.77;100.00
15050;BME280;7622;42.724;23.250;2023-02-28T08:26:50;95306.19;;;7.74;100.00
15050;BME280;7622;42.724;23.250;2023-02-28T08:29:17;95303.31;;;7.66;100.00
15050;BME280;7622;42.724;23.250;2023-02-28T08:31:44;95307.38;;;7.81;100.00
15050;BME280;7622;42.724;23.250;2023-02-28T08:34:12;95306.88;;;8.00;100.00
15050;BME280;7622;42.724;23.250;2023-02-28T08:36:39;95304.72;;;7.70;100.00
15050;BME280;7622;42.724;23.250;2023-02-28T08:39:06;95303.81;;;7.71;100.00
15050;BME280;7622;42.724;23.250;2023-02-28T08:41:35;95297.31;;;7.65;100.00
15050;BME280;7622;42.724;23.250;2023-02-28T08:44:02;95304.75;;;8.05;100.00
15050;BME280;7622;42.724;23.250;2023-02-28T08:46:29;95307.72;;;8.11;100.00
15050;BME280;7622;42.724;23.250;2023-02-28T08:48:56;95273.13;;;8.01;100.00
15050;BME280;7622;42.724;23.250;2023-02-28T08:51:26;95309.66;;;8.20;100.00
15050;BME280;7622;42.724;23.250;2023-02-28T08:53:53;95298.47;;;8.20;100.00
15050;BME280;7622;42.724;23.250;2023-02-28T08:56:21;95277.84;;;8.07;100.00
15050;BME280;7622;42.724;23.250;2023-02-28T08:58:50;95271.38;;;8.02;100.00
15050;BME280;7622;42.724;23.250;2023-02-28T09:01:20;95306.59;;;8.26;100.00
15050;BME280;7622;42.724;23.250;2023-02-28T09:03:50;95305.97;;;8.36;100.00
15050;BME280;7622;42.724;23.250;2023-02-28T09:06:20;95274.56;;;8.16;100.00
15050;BME280;7622;42.724;23.250;2023-02-28T09:08:47;95299.38;;;8.43;100.00
15050;BME280;7622;42.724;23.250;2023-02-28T09:11:15;95294.69;;;8.59;100.00
15050;BME280;7622;42.724;23.250;2023-02-28T09:13:42;95298.69;;;8.52;100.00
15050;BME280;7622;42.724;23.250;2023-02-28T09:16:12;95300.38;;;8.64;100.00
15050;BME280;7622;42.724;23.250;2023-02-28T09:18:40;95299.19;;;8.79;100.00
15050;BME280;7622;42.724;23.250;2023-02-28T09:21:08;95298.34;;;8.67;100.00
15050;BME280;7622;42.724;23.250;2023-02-28T09:23:36;95295.91;;;8.77;100.00
15050;BME280;7622;42.724;23.250;2023-02-28T09:26:04;95294.25;;;8.87;100.00
15050;BME280;7622;42.724;23.250;2023-02-28T09:28:31;95297.56;;;8.89;100.00
15050;BME280;7622;42.724;23.250;2023-02-28T09:30:58;95291.53;;;9.00;100.00
15050;BME280;7622;42.724;23.250;2023-02-28T09:33:26;95286.94;;;8.92;100.00
15050;BME280;7622;42.724;23.250;2023-02-28T09:35:58;95295.41;;;9.17;100.00
15050;BME280;7622;42.724;23.250;2023-02-28T09:38:25;95291.19;;;9.16;100.00
15050;BME280;7622;42.724;23.250;2023-02-28T09:40:55;95284.69;;;9.32;100.00
15050;BME280;7622;42.724;23.250;2023-02-28T09:43:25;95293.38;;;9.54;100.00
15050;BME280;7622;42.724;23.250;2023-02-28T09:45:56;95288.53;;;9.49;100.00
15050;BME280;7622;42.724;23.250;2023-02-28T09:48:29;95279.19;;;9.58;100.00
15050;BME280;7622;42.724;23.250;2023-02-28T09:51:03;95282.84;;;9.66;100.00
15050;BME280;7622;42.724;23.250;2023-02-28T09:53:32;95283.72;;;9.76;100.00
15050;BME280;7622;42.724;23.250;2023-02-28T09:56:03;95285.88;;;10.03;100.00
15050;BME280;7622;42.724;23.250;2023-02-28T09:58:36;95287.84;;;10.22;100.00
15050;BME280;7622;42.724;23.250;2023-02-28T10:01:10;95282.31;;;10.04;100.00
15050;BME280;7622;42.724;23.250;2023-02-28T10:03:43;95273.44;;;10.18;100.00
15050;BME280;7622;42.724;23.250;2023-02-28T10:06:17;95270.19;;;10.05;100.00
15050;BME280;7622;42.724;23.250;2023-02-28T10:08:51;95270.19;;;10.37;100.00
15050;BME280;7622;42.724;23.250;2023-02-28T10:11:20;95273.09;;;10.43;100.00
15050;BME280;7622;42.724;23.250;2023-02-28T10:13:54;95258.47;;;10.73;100.00
15050;BME280;7622;42.724;23.250;2023-02-28T10:16:30;95260.56;;;10.58;100.00
15050;BME280;7622;42.724;23.250;2023-02-28T10:19:03;95254.56;;;10.88;100.00
15050;BME280;7622;42.724;23.250;2023-02-28T10:21:35;95249.72;;;11.14;100.00
15050;BME280;7622;42.724;23.250;2023-02-28T10:24:05;95243.22;;;10.89;100.00
15050;BME280;7622;42.724;23.250;2023-02-28T10:26:39;95245.50;;;11.22;100.00
15050;BME280;7622;42.724;23.250;2023-02-28T10:29:10;95234.78;;;11.46;100.00
15050;BME280;7622;42.724;23.250;2023-02-28T10:31:38;95232.06;;;11.67;100.00
15050;BME280;7622;42.724;23.250;2023-02-28T10:34:07;95227.41;;;11.61;100.00
15050;BME280;7622;42.724;23.250;2023-02-28T10:36:34;95232.72;;;11.69;100.00
15050;BME280;7622;42.724;23.250;2023-02-28T10:39:01;95226.75;;;11.88;100.00
15050;BME280;7622;42.724;23.250;2023-02-28T10:41:30;95221.00;;;11.74;100.00
15050;BME280;7622;42.724;23.250;2023-02-28T10:44:14;95215.63;;;11.76;100.00
15050;BME280;7622;42.724;23.250;2023-02-28T10:46:42;95208.34;;;11.70;100.00
15050;BME280;7622;42.724;23.250;2023-02-28T10:49:15;95216.00;;;11.42;100.00
15050;BME280;7622;42.724;23.250;2023-02-28T10:51:44;95207.22;;;11.43;100.00
15050;BME280;7622;42.724;23.250;2023-02-28T10:54:19;95202.84;;;11.34;100.00
15050;BME280;7622;42.724;23.250;2023-02-28T10:57:07;95191.38;;;11.66;100.00
15050;BME280;7622;42.724;23.250;2023-02-28T10:59:34;95193.47;;;11.81;100.00
15050;BME280;7622;42.724;23.250;2023-02-28T11:02:01;95191.38;;;11.47;100.00
15050;BME280;7622;42.724;23.250;2023-02-28T11:04:36;95186.16;;;11.56;100.00
15050;BME280;7622;42.724;23.250;2023-02-28T11:07:10;95191.94;;;11.79;100.00
15050;BME280;7622;42.724;23.250;2023-02-28T11:09:45;95182.88;;;11.83;100.00
15050;BME280;7622;42.724;23.250;2023-02-28T11:12:20;95178.91;;;11.98;100.00
15050;BME280;7622;42.724;23.250;2023-02-28T11:14:50;95180.25;;;12.21;100.00
15050;BME280;7622;42.724;23.250;2023-02-28T11:17:20;95168.63;;;11.97;100.00
15050;BME280;7622;42.724;23.250;2023-02-28T11:19:52;95174.41;;;11.81;100.00
15050;BME280;7622;42.724;23.250;2023-02-28T11:22:22;95172.47;;;11.64;100.00
15050;BME280;7622;42.724;23.250;2023-02-28T11:24:55;95176.44;;;11.58;100.00
15050;BME280;7622;42.724;23.250;2023-02-28T11:27:42;95173.00;;;11.38;100.00
15050;BME280;7622;42.724;23.250;2023-02-28T11:30:34;95176.03;;;11.43;100.00
15050;BME280;7622;42.724;23.250;2023-02-28T11:33:22;95165.34;;;11.66;100.00
15050;BME280;7622;42.724;23.250;2023-02-28T11:35:52;95163.44;;;11.68;100.00
15050;BME280;7622;42.724;23.250;2023-02-28T11:38:20;95166.72;;;11.70;100.00
15050;BME280;7622;42.724;23.250;2023-02-28T11:40:55;95156.72;;;11.84;100.00
15050;BME280;7622;42.724;23.250;2023-02-28T11:43:38;95162.91;;;11.74;100.00
15050;BME280;7622;42.724;23.250;2023-02-28T11:46:19;95163.16;;;11.71;100.00
15050;BME280;7622;42.724;23.250;2023-02-28T11:48:52;95151.94;;;11.80;100.00
15050;BME280;7622;42.724;23.250;2023-02-28T11:51:27;95153.69;;;11.99;100.00
15050;BME280;7622;42.724;23.250;2023-02-28T11:54:13;95166.88;;;11.78;100.00
15050;BME280;7622;42.724;23.250;2023-02-28T11:56:50;95104.53;;;11.57;100.00
15050;BME280;7622;42.724;23.250;2023-02-28T11:59:46;95157.94;;;12.09;100.00
15050;BME280;7622;42.724;23.250;2023-02-28T12:02:24;95164.75;;;12.20;100.00
15050;BME280;7622;42.724;23.250;2023-02-28T12:05:10;95153.72;;;11.89;100.00
15050;BME280;7622;42.724;23.250;2023-02-28T12:07:55;95147.69;;;11.89;100.00
15050;BME280;7622;42.724;23.250;2023-02-28T12:10:26;95149.03;;;12.02;100.00
15050;BME280;7622;42.724;23.250;2023-02-28T12:13:04;95141.50;;;11.99;100.00
15050;BME280;7622;42.724;23.250;2023-02-28T12:15:53;95141.13;;;11.84;100.00
15050;BME280;7622;42.724;23.250;2023-02-28T12:18:36;95142.28;;;12.19;100.00
15050;BME280;7622;42.724;23.250;2023-02-28T12:21:13;95146.44;;;11.83;100.00
15050;BME280;7622;42.724;23.250;2023-02-28T12:23:58;95153.88;;;11.78;100.00
15050;BME280;7622;42.724;23.250;2023-02-28T12:26:32;95151.91;;;11.99;100.00
15050;BME280;7622;42.724;23.250;2023-02-28T12:29:04;95139.03;;;11.98;100.00
15050;BME280;7622;42.724;23.250;2023-02-28T12:31:37;95143.53;;;12.05;100.00
15050;BME280;7622;42.724;23.250;2023-02-28T12:34:09;95150.47;;;12.24;100.00
15050;BME280;7622;42.724;23.250;2023-02-28T12:36:39;95132.81;;;12.28;100.00
15050;BME280;7622;42.724;23.250;2023-02-28T12:39:13;95149.69;;;12.14;100.00
15050;BME280;7622;42.724;23.250;2023-02-28T12:41:45;95143.94;;;12.10;100.00
15050;BME280;7622;42.724;23.250;2023-02-28T12:44:17;95141.94;;;11.95;100.00
15050;BME280;7622;42.724;23.250;2023-02-28T12:46:48;95135.78;;;11.86;100.00
15050;BME280;7622;42.724;23.250;2023-02-28T12:49:18;95129.75;;;11.47;100.00
15050;BME280;7622;42.724;23.250;2023-02-28T12:51:48;95140.44;;;11.44;100.00
15050;BME280;7622;42.724;23.250;2023-02-28T12:54:23;95133.84;;;11.69;100.00
15050;BME280;7622;42.724;23.250;2023-02-28T12:56:56;95141.66;;;11.59;100.00
15050;BME280;7622;42.724;23.250;2023-02-28T12:59:27;95146.31;;;11.56;100.00
15050;BME280;7622;42.724;23.250;2023-02-28T13:02:24;95131.69;;;11.74;100.00
15050;BME280;7622;42.724;23.250;2023-02-28T13:05:08;95137.94;;;11.42;100.00
15050;BME280;7622;42.724;23.250;2023-02-28T13:08:00;95119.34;;;11.37;100.00
15050;BME280;7622;42.724;23.250;2023-02-28T13:10:46;95130.44;;;11.39;100.00
15050;BME280;7622;42.724;23.250;2023-02-28T13:13:18;95132.75;;;11.62;100.00
15050;BME280;7622;42.724;23.250;2023-02-28T13:16:02;95116.19;;;11.63;100.00
15050;BME280;7622;42.724;23.250;2023-02-28T13:18:35;95132.78;;;11.33;100.00
15050;BME280;7622;42.724;23.250;2023-02-28T13:21:06;95107.16;;;11.28;100.00